Time;durP1;ratioP1;P1;durP2;ratioP2;P2;SDS_P1;SDS_P2;PMS_P1;PMS_P2;Temp;Humidity;BMP_temperature;BMP_pressure;BME280_temperature;BME280_humidity;BME280_pressure;Samples;Min_cycle;Max_cycle;Signal;HPM_P1;HPM_P2
2021/01/13 00:00:37;;;;;;;14.07;4.22;;;1.40;99.90;;;;;;4178737;28;20040;-80
2021/01/13 00:02:41;;;;;;;12.50;4.28;;;1.40;99.90;;;;;;4179358;28;20411;-80
2021/01/13 00:04:41;;;;;;;17.10;3.83;;;1.50;99.90;;;;;;4179480;28;20124;-80
2021/01/13 00:06:42;;;;;;;11.25;3.78;;;1.60;99.90;;;;;;4161798;28;20033;-80
2021/01/13 00:08:42;;;;;;;11.20;4.18;;;1.50;99.90;;;;;;4179495;28;20120;-80
2021/01/13 00:10:43;;;;;;;9.50;3.83;;;1.50;99.90;;;;;;4151845;28;20109;-80
2021/01/13 00:12:43;;;;;;;16.05;4.68;;;1.50;99.90;;;;;;4155781;28;20469;-80
2021/01/13 00:14:44;;;;;;;14.93;4.50;;;1.60;99.90;;;;;;4179107;28;20032;-80
2021/01/13 00:16:44;;;;;;;23.52;4.85;;;1.50;99.90;;;;;;4153782;28;20034;-80
2021/01/13 00:18:47;;;;;;;10.55;3.60;;;1.50;99.90;;;;;;4161550;28;20034;-80
2021/01/13 00:20:48;;;;;;;11.90;3.25;;;1.50;99.90;;;;;;4161626;28;20032;-80
2021/01/13 00:22:49;;;;;;;16.08;4.55;;;1.50;99.90;;;;;;4178378;28;20028;-80
2021/01/13 00:24:50;;;;;;;10.98;3.70;;;1.50;99.90;;;;;;4177734;28;20036;-79
2021/01/13 00:26:57;;;;;;;25.30;3.92;;;1.60;99.90;;;;;;4177889;28;20060;-80
2021/01/13 00:28:57;;;;;;;17.10;3.33;;;1.70;99.90;;;;;;4177523;28;20095;-79
2021/01/13 00:30:58;;;;;;;11.77;3.97;;;1.70;99.90;;;;;;4179250;28;20396;-79
2021/01/13 00:32:59;;;;;;;9.73;4.13;;;1.90;99.90;;;;;;4181175;28;20031;-79
2021/01/13 00:35:00;;;;;;;12.70;3.55;;;2.00;99.90;;;;;;4181172;28;20528;-79
2021/01/13 00:37:00;;;;;;;10.10;3.97;;;2.10;99.90;;;;;;4180962;28;20071;-79
2021/01/13 00:39:01;;;;;;;12.23;3.40;;;2.10;99.90;;;;;;4166448;28;20500;-77
2021/01/13 00:41:02;;;;;;;21.65;4.30;;;2.20;99.90;;;;;;4180759;28;20060;-79
2021/01/13 00:43:03;;;;;;;13.85;4.45;;;2.30;99.90;;;;;;4181119;28;20026;-78
2021/01/13 00:45:05;;;;;;;12.23;3.95;;;2.20;99.90;;;;;;4163189;28;20036;-78
2021/01/13 00:47:06;;;;;;;12.95;3.85;;;2.20;99.90;;;;;;4181121;28;20108;-78
2021/01/13 00:49:08;;;;;;;12.45;3.25;;;2.20;99.90;;;;;;4163169;28;20045;-78
2021/01/13 00:51:09;;;;;;;9.68;3.75;;;2.20;99.90;;;;;;4162911;28;20025;-79
2021/01/13 00:53:09;;;;;;;9.30;2.92;;;2.20;99.90;;;;;;4181695;28;20029;-79
2021/01/13 00:55:10;;;;;;;13.32;3.50;;;2.20;99.90;;;;;;4182214;28;20391;-78
2021/01/13 00:57:11;;;;;;;10.65;4.20;;;2.40;99.90;;;;;;4182277;28;20060;-79
2021/01/13 00:59:11;;;;;;;4.20;2.72;;;2.40;99.90;;;;;;4164407;28;20032;-79
2021/01/13 01:01:14;;;;;;;8.60;3.13;;;2.60;99.90;;;;;;4182382;28;20021;-79
2021/01/13 01:03:14;;;;;;;4.63;3.08;;;2.60;99.90;;;;;;4164510;28;20030;-78
2021/01/13 01:05:15;;;;;;;10.52;3.55;;;2.60;99.90;;;;;;4181929;28;20079;-78
2021/01/13 01:07:15;;;;;;;15.32;3.35;;;2.50;99.90;;;;;;4181851;28;20028;-78
2021/01/13 01:09:16;;;;;;;8.30;3.13;;;2.40;99.90;;;;;;4181901;28;20081;-78
2021/01/13 01:11:26;;;;;;;10.18;3.83;;;2.40;99.90;;;;;;4182084;28;20031;-79
2021/01/13 01:13:26;;;;;;;8.57;2.97;;;2.30;99.90;;;;;;4181416;28;20029;-79
2021/01/13 01:15:27;;;;;;;12.60;4.18;;;2.30;99.90;;;;;;4181734;28;20152;-78
2021/01/13 01:17:27;;;;;;;5.65;3.20;;;2.20;99.90;;;;;;4181909;28;20432;-79
2021/01/13 01:19:28;;;;;;;7.38;2.85;;;2.30;99.90;;;;;;4181653;28;20025;-79
2021/01/13 01:21:29;;;;;;;5.72;2.60;;;2.40;99.90;;;;;;4181731;28;20025;-80
2021/01/13 01:23:30;;;;;;;12.90;2.83;;;2.40;99.90;;;;;;4182056;28;20064;-79
2021/01/13 01:25:31;;;;;;;9.82;3.95;;;2.40;99.90;;;;;;4181549;28;20310;-80
2021/01/13 01:27:31;;;;;;;5.13;2.50;;;2.50;99.90;;;;;;4163855;28;20030;-79
2021/01/13 01:29:32;;;;;;;7.07;2.55;;;2.50;99.90;;;;;;4181975;28;20087;-80
2021/01/13 01:31:32;;;;;;;12.90;3.40;;;2.40;99.90;;;;;;4163961;28;20045;-80
2021/01/13 01:33:33;;;;;;;10.98;2.90;;;2.30;99.90;;;;;;4181663;28;20033;-80
2021/01/13 01:35:34;;;;;;;11.90;3.28;;;2.30;99.90;;;;;;4181722;28;20036;-79
2021/01/13 01:37:36;;;;;;;5.72;2.47;;;2.20;99.90;;;;;;4181131;28;20033;-79
2021/01/13 01:39:36;;;;;;;11.00;3.33;;;2.20;99.90;;;;;;4156171;28;20500;-79
2021/01/13 01:41:37;;;;;;;9.18;3.13;;;2.10;99.90;;;;;;4181639;28;20033;-80
2021/01/13 01:43:42;;;;;;;11.48;3.17;;;2.10;99.90;;;;;;4180789;28;20040;-79
2021/01/13 01:45:43;;;;;;;18.50;3.28;;;2.10;99.90;;;;;;4181201;28;20090;-79
2021/01/13 01:48:01;;;;;;;10.15;3.05;;;1.90;99.90;;;;;;4181171;28;20132;-80
2021/01/13 01:50:02;;;;;;;8.45;2.83;;;1.90;99.90;;;;;;4170120;28;20025;-78
2021/01/13 01:52:10;;;;;;;9.52;3.67;;;1.90;99.90;;;;;;4178807;28;20082;-78
2021/01/13 01:54:16;;;;;;;15.02;3.22;;;1.90;99.90;;;;;;4147238;28;20049;-79
2021/01/13 01:56:25;;;;;;;8.52;2.75;;;1.90;99.90;;;;;;4148384;28;20464;-79
2021/01/13 01:58:30;;;;;;;13.55;3.15;;;1.90;99.90;;;;;;4148586;28;20437;-80
2021/01/13 02:00:31;;;;;;;13.15;3.63;;;1.90;99.90;;;;;;4156432;28;20056;-80
2021/01/13 02:02:39;;;;;;;12.48;3.15;;;1.90;99.90;;;;;;4146902;28;20042;-80
2021/01/13 02:04:43;;;;;;;8.32;3.08;;;1.80;99.90;;;;;;4146464;28;20036;-79
2021/01/13 02:07:04;;;;;;;11.45;3.10;;;1.70;99.90;;;;;;4145715;28;20046;-80
2021/01/13 02:09:04;;;;;;;11.68;3.10;;;1.70;99.90;;;;;;4144700;28;20049;-80
2021/01/13 02:11:17;;;;;;;9.18;3.58;;;1.70;99.90;;;;;;4146984;28;20030;-79
2021/01/13 02:13:21;;;;;;;12.03;3.00;;;1.70;99.90;;;;;;4146741;28;20060;-78
2021/01/13 02:15:22;;;;;;;9.82;3.28;;;1.70;99.90;;;;;;4145292;28;20787;-79
2021/01/13 02:17:29;;;;;;;16.70;2.70;;;1.70;99.90;;;;;;4147198;28;20026;-78
2021/01/13 02:19:47;;;;;;;9.48;3.67;;;1.70;99.90;;;;;;4146976;28;20054;-79
2021/01/13 02:21:52;;;;;;;15.68;3.60;;;1.60;99.90;;;;;;4148003;28;20060;-80
2021/01/13 02:24:31;;;;;;;9.95;3.03;;;1.70;99.90;;;;;;4147995;28;20407;-80
2021/01/13 02:27:14;;;;;;;14.63;3.88;;;1.60;99.90;;;;;;4147547;28;20034;-80
2021/01/13 02:29:43;;;;;;;21.83;4.38;;;1.60;99.90;;;;;;4146777;28;20362;-80
2021/01/13 02:32:18;;;;;;;12.10;3.70;;;1.70;99.90;;;;;;4147845;28;20113;-79
2021/01/13 02:34:30;;;;;;;13.77;3.30;;;1.70;99.90;;;;;;4147802;28;20086;-79
2021/01/13 02:36:34;;;;;;;18.77;3.92;;;1.70;99.90;;;;;;4147971;28;20034;-79
2021/01/13 02:38:37;;;;;;;15.13;2.63;;;1.70;99.90;;;;;;4147584;28;20060;-79
2021/01/13 02:40:47;;;;;;;15.82;3.85;;;1.70;99.90;;;;;;4148368;28;20034;-80
2021/01/13 02:43:09;;;;;;;12.63;3.05;;;1.70;99.90;;;;;;4148299;28;20110;-79
2021/01/13 02:45:13;;;;;;;11.30;4.03;;;1.70;99.90;;;;;;4147543;28;20034;-79
2021/01/13 02:47:21;;;;;;;9.80;3.95;;;1.70;99.90;;;;;;4147372;28;20026;-78
2021/01/13 02:49:39;;;;;;;7.78;3.45;;;1.70;99.90;;;;;;4146280;28;20073;-79
2021/01/13 02:51:40;;;;;;;10.23;3.55;;;1.70;99.90;;;;;;4147802;28;20069;-78
2021/01/13 02:53:54;;;;;;;9.10;3.45;;;1.70;99.90;;;;;;4146707;28;20058;-79
2021/01/13 02:55:55;;;;;;;13.60;3.40;;;1.70;99.90;;;;;;4146599;28;20033;-79
2021/01/13 02:57:56;;;;;;;12.23;3.25;;;1.70;99.90;;;;;;4146559;28;20060;-79
2021/01/13 02:59:58;;;;;;;18.38;3.80;;;1.60;99.90;;;;;;4147659;28;20397;-79
2021/01/13 03:02:04;;;;;;;16.40;2.97;;;1.60;99.90;;;;;;4147476;28;20061;-78
2021/01/13 03:04:07;;;;;;;6.75;3.35;;;1.70;99.90;;;;;;4147220;28;20037;-79
2021/01/13 03:06:09;;;;;;;6.10;3.20;;;1.70;99.90;;;;;;4147517;28;20125;-79
2021/01/13 03:08:12;;;;;;;12.57;3.00;;;1.80;99.90;;;;;;4146213;28;20034;-80
2021/01/13 03:10:17;;;;;;;12.05;3.17;;;1.80;99.90;;;;;;4146040;28;20025;-79
2021/01/13 03:12:26;;;;;;;7.07;2.85;;;1.80;99.90;;;;;;4147432;28;20524;-79
2021/01/13 03:14:32;;;;;;;14.35;3.28;;;1.90;99.90;;;;;;4147217;28;20084;-80
2021/01/13 03:16:39;;;;;;;16.63;3.30;;;2.10;99.90;;;;;;4147366;28;20064;-80
2021/01/13 03:18:58;;;;;;;10.40;2.72;;;2.10;99.90;;;;;;4147250;28;20072;-79
2021/01/13 03:21:15;;;;;;;8.35;2.53;;;2.20;99.90;;;;;;4146082;28;20033;-80
2021/01/13 03:23:22;;;;;;;10.95;3.00;;;2.30;99.90;;;;;;4146904;28;20053;-79
2021/01/13 03:25:24;;;;;;;8.82;3.42;;;2.30;99.90;;;;;;4147288;28;20061;-79
2021/01/13 03:27:27;;;;;;;6.63;2.15;;;2.30;99.90;;;;;;4146135;28;20038;-80
2021/01/13 03:29:30;;;;;;;;;;;2.30;99.90;;;;;;4147538;28;20429;-79
2021/01/13 03:31:45;;;;;;;12.73;3.30;;;2.20;99.90;;;;;;4147113;28;19914;-80
2021/01/13 03:34:23;;;;;;;8.88;3.40;;;2.20;99.90;;;;;;4146908;28;20351;-80
2021/01/13 03:36:38;;;;;;;15.68;2.90;;;2.20;99.90;;;;;;4146717;28;20478;-80
2021/01/13 03:39:03;;;;;;;14.65;3.22;;;2.20;99.90;;;;;;4146888;28;20036;-80
2021/01/13 03:41:06;;;;;;;15.57;3.15;;;2.20;99.90;;;;;;4145899;28;20412;-80
2021/01/13 03:43:19;;;;;;;8.98;2.58;;;2.20;99.90;;;;;;4147089;28;20038;-77
2021/01/13 03:45:36;;;;;;;19.40;3.10;;;2.20;99.90;;;;;;4132017;28;20064;-81
2021/01/13 03:48:00;;;;;;;11.27;3.15;;;2.20;99.90;;;;;;4138454;28;20351;-80
2021/01/13 03:50:16;;;;;;;13.00;3.53;;;2.20;99.90;;;;;;4146605;28;20041;-79
2021/01/13 03:52:18;;;;;;;29.63;5.43;;;2.20;99.90;;;;;;4145521;28;20030;-80
2021/01/13 03:54:23;;;;;;;10.50;2.90;;;2.30;99.90;;;;;;4145409;28;20460;-80
2021/01/13 03:56:28;;;;;;;7.38;3.17;;;2.40;99.90;;;;;;4145209;28;20045;-77
2021/01/13 03:58:51;;;;;;;8.55;2.50;;;2.50;99.90;;;;;;4146810;28;20440;-80
2021/01/13 04:01:13;;;;;;;13.05;3.28;;;2.50;99.90;;;;;;4143756;28;20073;-78
2021/01/13 04:03:18;;;;;;;9.90;3.00;;;2.70;99.90;;;;;;4146557;28;20071;-80
2021/01/13 04:05:30;;;;;;;12.73;4.90;;;2.70;99.90;;;;;;4147087;28;20080;-78
2021/01/13 04:07:38;;;;;;;7.47;2.63;;;2.70;99.90;;;;;;4150381;28;20083;-78
2021/01/13 04:09:40;;;;;;;9.20;3.22;;;2.60;99.90;;;;;;4150089;28;20058;-78
2021/01/13 04:11:44;;;;;;;9.82;2.40;;;2.60;99.90;;;;;;4148277;28;20076;-78
2021/01/13 04:13:47;;;;;;;7.82;2.70;;;2.60;99.90;;;;;;4148611;28;20065;-78
2021/01/13 04:15:50;;;;;;;6.82;3.17;;;2.60;99.90;;;;;;4148691;28;20087;-78
2021/01/13 04:17:51;;;;;;;13.55;2.95;;;2.50;99.90;;;;;;4148488;28;20037;-78
2021/01/13 04:19:54;;;;;;;7.93;3.75;;;2.30;99.90;;;;;;4147141;28;20034;-77
2021/01/13 04:22:02;;;;;;;11.77;3.60;;;2.30;99.90;;;;;;4148425;28;20034;-78
2021/01/13 04:24:03;;;;;;;15.35;3.45;;;2.30;99.90;;;;;;4148181;28;20042;-78
2021/01/13 04:26:04;;;;;;;14.45;2.70;;;2.30;99.90;;;;;;4147019;28;20034;-78
2021/01/13 04:28:05;;;;;;;11.18;4.40;;;2.30;99.90;;;;;;4148639;28;20370;-77
2021/01/13 04:30:07;;;;;;;14.38;3.45;;;2.30;99.90;;;;;;4149651;28;20053;-77
2021/01/13 04:32:09;;;;;;;14.15;3.70;;;2.20;99.90;;;;;;4149536;28;20072;-78
2021/01/13 04:34:10;;;;;;;16.85;4.28;;;2.20;99.90;;;;;;4148435;28;20029;-78
2021/01/13 04:36:12;;;;;;;12.30;3.85;;;2.20;99.90;;;;;;4149903;28;20038;-78
2021/01/13 04:38:17;;;;;;;16.77;5.15;;;2.20;99.90;;;;;;4148284;28;20034;-78
2021/01/13 04:40:24;;;;;;;12.85;5.25;;;2.20;99.90;;;;;;4149603;28;20029;-78
2021/01/13 04:42:34;;;;;;;14.57;3.30;;;2.20;99.90;;;;;;4149597;28;20033;-80
2021/01/13 04:45:04;;;;;;;7.13;3.60;;;2.10;99.90;;;;;;4149637;28;20049;-78
2021/01/13 04:47:07;;;;;;;17.60;4.60;;;2.10;99.90;;;;;;4149307;28;20393;-78
2021/01/13 04:49:16;;;;;;;12.02;3.38;;;2.00;99.90;;;;;;4148048;28;20076;-79
2021/01/13 04:51:20;;;;;;;9.75;2.95;;;2.00;99.90;;;;;;4149519;28;20042;-78
2021/01/13 04:53:22;;;;;;;13.90;3.63;;;2.10;99.90;;;;;;4149547;28;20070;-80
2021/01/13 04:55:25;;;;;;;15.10;3.80;;;2.10;99.90;;;;;;4147762;28;20049;-79
2021/01/13 04:58:00;;;;;;;12.73;3.60;;;2.10;99.90;;;;;;4148222;28;20105;-80
2021/01/13 05:00:11;;;;;;;12.30;3.30;;;2.10;99.90;;;;;;4149544;28;20406;-79
2021/01/13 05:02:16;;;;;;;12.40;4.10;;;2.10;99.90;;;;;;4147623;28;20081;-79
2021/01/13 05:04:44;;;;;;;14.60;3.38;;;2.10;99.90;;;;;;4148897;28;20018;-80
2021/01/13 05:06:49;;;;;;;11.70;3.60;;;2.10;99.90;;;;;;4149508;28;20030;-79
2021/01/13 05:09:07;;;;;;;12.63;3.42;;;2.00;99.90;;;;;;4149285;28;20030;-79
2021/01/13 05:11:12;;;;;;;17.38;3.60;;;2.00;99.90;;;;;;4148632;28;20030;-79
2021/01/13 05:13:17;;;;;;;13.15;4.07;;;2.00;99.90;;;;;;4149267;28;20478;-78
2021/01/13 05:15:26;;;;;;;16.33;3.72;;;2.10;99.90;;;;;;4147573;28;20390;-78
2021/01/13 05:17:35;;;;;;;14.98;3.83;;;2.10;99.90;;;;;;4146070;28;20589;-78
2021/01/13 05:20:04;;;;;;;9.55;3.88;;;2.20;99.90;;;;;;4149127;28;20052;-79
2021/01/13 05:22:11;;;;;;;18.30;4.63;;;2.10;99.90;;;;;;4141855;28;20393;-78
2021/01/13 05:24:20;;;;;;;17.20;4.07;;;2.10;99.90;;;;;;4147847;28;20458;-79
2021/01/13 05:26:31;;;;;;;7.85;3.63;;;2.00;99.90;;;;;;4147381;28;20037;-79
2021/01/13 05:28:49;;;;;;;46.60;6.47;;;2.10;99.90;;;;;;4147473;28;20041;-79
2021/01/13 05:30:58;;;;;;;12.93;4.18;;;2.10;99.90;;;;;;4147334;28;20026;-80
2021/01/13 05:32:59;;;;;;;20.05;4.38;;;2.10;99.90;;;;;;4148436;28;20645;-79
2021/01/13 05:35:03;;;;;;;21.77;4.65;;;2.20;99.90;;;;;;4147494;28;20076;-80
2021/01/13 05:37:12;;;;;;;13.65;3.35;;;2.10;99.90;;;;;;4148440;28;20473;-79
2021/01/13 05:39:22;;;;;;;15.45;4.70;;;2.10;99.90;;;;;;4148866;28;20034;-80
2021/01/13 05:41:23;;;;;;;10.38;3.25;;;2.20;99.90;;;;;;4148659;28;20485;-77
2021/01/13 05:43:24;;;;;;;15.60;4.00;;;2.10;99.90;;;;;;4147532;28;20101;-80
2021/01/13 05:45:26;;;;;;;15.82;4.38;;;2.10;99.90;;;;;;4147046;28;20108;-78
2021/01/13 05:47:53;;;;;;;11.75;3.97;;;2.10;99.90;;;;;;4145570;28;20038;-79
2021/01/13 05:49:58;;;;;;;15.15;4.45;;;2.20;99.90;;;;;;4147221;28;20504;-77
2021/01/13 05:52:08;;;;;;;16.45;4.00;;;2.20;99.90;;;;;;4147585;28;20018;-80
2021/01/13 05:54:15;;;;;;;15.55;3.63;;;2.10;99.90;;;;;;4148143;28;20103;-78
2021/01/13 05:56:17;;;;;;;17.15;4.07;;;2.10;99.90;;;;;;4148569;28;20432;-78
2021/01/13 05:58:23;;;;;;;10.90;3.83;;;2.00;99.90;;;;;;4146202;28;20034;-79
2021/01/13 06:00:29;;;;;;;24.27;3.90;;;2.00;99.90;;;;;;4148132;28;20033;-78
2021/01/13 06:02:37;;;;;;;17.23;4.53;;;2.00;99.90;;;;;;4134317;28;20539;-79
2021/01/13 06:04:40;;;;;;;16.65;4.72;;;2.00;99.90;;;;;;4130764;28;20510;-79
2021/01/13 06:06:56;;;;;;;13.95;4.18;;;2.00;99.90;;;;;;4132125;28;20044;-79
2021/01/13 06:08:58;;;;;;;22.08;5.03;;;2.00;99.90;;;;;;4130563;28;20117;-79
2021/01/13 06:11:01;;;;;;;23.45;5.15;;;1.90;99.90;;;;;;4128825;28;20031;-79
2021/01/13 06:13:04;;;;;;;20.88;4.70;;;1.90;99.90;;;;;;4136184;28;20034;-78
2021/01/13 06:15:07;;;;;;;;;;;1.90;99.90;;;;;;4135226;28;20030;-78
2021/01/13 06:17:18;;;;;;;21.52;4.63;;;2.00;99.90;;;;;;4147426;28;19920;-78
2021/01/13 06:19:19;;;;;;;21.55;5.30;;;2.00;99.90;;;;;;4145252;28;20018;-79
2021/01/13 06:21:20;;;;;;;14.60;4.78;;;2.10;99.90;;;;;;4145054;28;20049;-79
2021/01/13 06:23:22;;;;;;;12.95;3.90;;;2.00;99.90;;;;;;4147596;28;20030;-79
2021/01/13 06:25:28;;;;;;;13.13;4.30;;;2.00;99.90;;;;;;4147354;28;20037;-79
2021/01/13 06:28:05;;;;;;;18.65;4.68;;;2.00;99.90;;;;;;4146190;28;20041;-78
2021/01/13 06:30:21;;;;;;;13.07;3.92;;;2.10;99.90;;;;;;4146084;28;20033;-78
2021/01/13 06:32:43;;;;;;;10.65;3.80;;;2.10;99.90;;;;;;4147415;28;20080;-78
2021/01/13 06:34:57;;;;;;;19.25;4.55;;;2.00;99.90;;;;;;4147464;28;20037;-78
2021/01/13 06:37:09;;;;;;;14.30;3.72;;;1.90;99.90;;;;;;4142226;28;20393;-78
2021/01/13 06:39:11;;;;;;;16.52;4.28;;;2.00;99.90;;;;;;4144111;28;20125;-79
2021/01/13 06:41:13;;;;;;;20.98;4.05;;;1.90;99.90;;;;;;4135336;28;20023;-78
2021/01/13 06:43:14;;;;;;;14.80;4.75;;;1.80;99.90;;;;;;4148607;28;20030;-79
2021/01/13 06:45:32;;;;;;;14.90;3.65;;;1.80;99.90;;;;;;4147542;28;20022;-79
2021/01/13 06:47:33;;;;;;;15.77;4.43;;;1.90;99.90;;;;;;4147740;28;20371;-79
2021/01/13 06:49:33;;;;;;;20.05;4.75;;;1.90;99.90;;;;;;4147534;28;20044;-79
2021/01/13 06:51:35;;;;;;;16.75;3.70;;;1.90;99.90;;;;;;4147475;28;20030;-78
2021/01/13 06:53:36;;;;;;;10.90;3.92;;;2.00;99.90;;;;;;4175342;28;20049;-78
2021/01/13 06:55:39;;;;;;;13.60;5.03;;;2.00;99.90;;;;;;4181821;28;20357;-79
2021/01/13 06:57:40;;;;;;;13.73;5.13;;;1.90;99.90;;;;;;4181652;28;20538;-79
2021/01/13 06:59:41;;;;;;;19.50;3.88;;;2.00;99.90;;;;;;4174793;28;20061;-78
2021/01/13 07:02:09;;;;;;;17.23;5.82;;;2.00;99.90;;;;;;4164979;28;20025;-77
2021/01/13 07:04:09;;;;;;;11.32;3.58;;;2.00;99.90;;;;;;4157359;28;20065;-79
2021/01/13 07:06:11;;;;;;;13.73;5.10;;;2.00;99.90;;;;;;4178608;28;20029;-79
2021/01/13 07:08:11;;;;;;;14.07;3.75;;;2.00;99.90;;;;;;4165751;28;20399;-80
2021/01/13 07:10:14;;;;;;;18.58;4.03;;;2.00;99.90;;;;;;4166538;28;20065;-78
2021/01/13 07:12:17;;;;;;;12.18;4.05;;;2.00;99.90;;;;;;4147673;28;20166;-78
2021/01/13 07:14:19;;;;;;;15.13;4.32;;;1.90;99.90;;;;;;4164604;28;20040;-78
2021/01/13 07:16:27;;;;;;;14.00;3.90;;;1.90;99.90;;;;;;4162661;28;20123;-78
2021/01/13 07:18:28;;;;;;;12.82;3.47;;;1.80;99.90;;;;;;4163579;28;20046;-79
2021/01/13 07:20:30;;;;;;;23.00;5.95;;;1.90;99.90;;;;;;4180651;28;20714;-79
2021/01/13 07:22:30;;;;;;;16.55;3.47;;;2.00;99.90;;;;;;4180675;28;20037;-79
2021/01/13 07:24:31;;;;;;;13.93;3.60;;;1.90;99.90;;;;;;4181155;28;20472;-79
2021/01/13 07:26:32;;;;;;;13.25;3.55;;;2.00;99.90;;;;;;4181393;28;20072;-78
2021/01/13 07:28:36;;;;;;;13.02;3.88;;;2.00;99.90;;;;;;4163562;28;20574;-79
2021/01/13 07:30:39;;;;;;;7.22;2.95;;;2.00;99.90;;;;;;4176674;28;20037;-78
2021/01/13 07:32:41;;;;;;;14.27;3.85;;;2.00;99.90;;;;;;4174000;28;20032;-78
2021/01/13 07:34:43;;;;;;;21.17;4.90;;;2.00;99.90;;;;;;4179233;28;20523;-78
2021/01/13 07:36:49;;;;;;;9.98;3.38;;;2.00;99.90;;;;;;4178417;28;20036;-78
2021/01/13 07:39:02;;;;;;;9.93;3.80;;;1.90;99.90;;;;;;4177824;28;20398;-79
2021/01/13 07:41:07;;;;;;;6.43;3.17;;;2.00;99.90;;;;;;4177442;28;20373;-78
2021/01/13 07:43:09;;;;;;;15.32;3.45;;;2.00;99.90;;;;;;4175858;28;20024;-77
2021/01/13 07:45:16;;;;;;;14.75;3.72;;;2.00;99.90;;;;;;4160805;28;20565;-78
2021/01/13 07:47:54;;;;;;;9.27;3.45;;;2.10;99.90;;;;;;4167658;28;20369;-78
2021/01/13 07:50:09;;;;;;;11.35;4.30;;;2.10;99.90;;;;;;4177606;28;20045;-79
2021/01/13 07:52:16;;;;;;;10.43;3.85;;;2.10;99.90;;;;;;4174534;28;20039;-78
2021/01/13 07:54:36;;;;;;;13.00;3.55;;;2.00;99.90;;;;;;4162723;28;20380;-78
2021/01/13 07:56:44;;;;;;;20.77;4.13;;;2.00;99.90;;;;;;4164351;28;20030;-78
2021/01/13 07:59:22;;;;;;;9.10;4.43;;;1.90;99.90;;;;;;4176629;28;20488;-78
2021/01/13 08:02:11;;;;;;;14.80;3.92;;;1.90;99.90;;;;;;4177413;28;20025;-77
2021/01/13 08:04:30;;;;;;;11.27;4.07;;;2.00;99.90;;;;;;4077963;29;20145;-77
2021/01/13 08:06:35;;;;;;;13.95;3.42;;;2.00;99.90;;;;;;4159201;28;20420;-78
2021/01/13 08:08:53;;;;;;;7.53;3.03;;;2.00;99.90;;;;;;4159985;28;20454;-79
2021/01/13 08:10:58;;;;;;;10.57;3.55;;;2.00;99.90;;;;;;4177614;28;20068;-79
2021/01/13 08:13:34;;;;;;;11.20;3.10;;;2.00;99.90;;;;;;4160075;28;20056;-79
2021/01/13 08:15:56;;;;;;;11.82;4.13;;;2.00;99.90;;;;;;4139349;28;20033;-80
2021/01/13 08:18:41;;;;;;;11.35;3.22;;;2.00;99.90;;;;;;4159839;28;20057;-80
2021/01/13 08:21:22;;;;;;;9.32;3.10;;;2.00;99.90;;;;;;4178613;28;20045;-79
2021/01/13 08:23:35;;;;;;;10.20;3.58;;;2.00;99.90;;;;;;4155527;28;20029;-80
2021/01/13 08:25:37;;;;;;;12.95;4.00;;;2.00;99.90;;;;;;4179312;28;20037;-78
2021/01/13 08:27:38;;;;;;;12.38;3.40;;;2.00;99.90;;;;;;4161702;28;20472;-80
2021/01/13 08:29:40;;;;;;;9.00;3.67;;;2.00;99.90;;;;;;4178731;28;20044;-80
2021/01/13 08:31:47;;;;;;;15.68;3.75;;;2.10;99.90;;;;;;4177628;28;20051;-80
2021/01/13 08:33:50;;;;;;;7.25;3.55;;;2.20;99.90;;;;;;4168730;28;20048;-80
2021/01/13 08:35:58;;;;;;;12.35;4.22;;;2.20;99.90;;;;;;4178996;28;20025;-80
2021/01/13 08:38:10;;;;;;;23.80;4.57;;;2.30;99.90;;;;;;4157227;28;20041;-78
2021/01/13 08:40:27;;;;;;;13.25;3.55;;;2.30;99.90;;;;;;4175728;28;20033;-79
2021/01/13 08:42:29;;;;;;;10.00;4.20;;;2.20;99.90;;;;;;4155990;28;20037;-80
2021/01/13 08:44:38;;;;;;;10.57;3.72;;;2.30;99.90;;;;;;4166795;28;20038;-79
2021/01/13 08:46:44;;;;;;;9.35;3.63;;;2.40;99.90;;;;;;4166067;28;20033;-79
2021/01/13 08:48:46;;;;;;;13.88;3.92;;;2.50;99.90;;;;;;4148798;28;20033;-80
2021/01/13 08:51:19;;;;;;;12.23;4.22;;;2.40;99.90;;;;;;4148791;28;20027;-80
2021/01/13 08:53:26;;;;;;;10.43;3.85;;;2.40;99.90;;;;;;4153325;28;20090;-80
2021/01/13 08:55:27;;;;;;;14.52;3.67;;;2.50;99.90;;;;;;4166286;28;20110;-80
2021/01/13 08:57:51;;;;;;;12.40;3.35;;;2.50;99.90;;;;;;4153129;28;20571;-79
2021/01/13 08:59:52;;;;;;;6.72;3.45;;;2.60;99.90;;;;;;4175192;28;20120;-80
2021/01/13 09:01:53;;;;;;;10.45;3.65;;;2.60;99.90;;;;;;4181467;28;20025;-80
2021/01/13 09:04:09;;;;;;;13.82;3.50;;;2.70;99.90;;;;;;4171254;28;20028;-79
2021/01/13 09:06:27;;;;;;;13.20;4.10;;;2.70;99.90;;;;;;4176970;28;20546;-79
2021/01/13 09:08:31;;;;;;;16.60;3.58;;;2.80;99.90;;;;;;4162228;28;20034;-80
2021/01/13 09:10:49;;;;;;;11.23;3.85;;;2.80;99.90;;;;;;4162137;28;20041;-80
2021/01/13 09:12:50;;;;;;;19.50;3.72;;;2.80;99.90;;;;;;4160325;28;20029;-80
2021/01/13 09:15:10;;;;;;;16.20;4.20;;;2.80;99.90;;;;;;4137745;28;20225;-80
2021/01/13 09:17:14;;;;;;;10.82;3.70;;;2.80;99.90;;;;;;4154923;28;20025;-80
2021/01/13 09:19:29;;;;;;;20.17;5.15;;;2.90;99.90;;;;;;4165472;28;20429;-80
2021/01/13 09:21:32;;;;;;;12.45;3.67;;;3.00;99.90;;;;;;4178294;28;20379;-81
2021/01/13 09:23:35;;;;;;;15.38;4.20;;;3.00;99.90;;;;;;4168891;28;20522;-79
2021/01/13 09:25:47;;;;;;;8.93;3.22;;;3.10;99.90;;;;;;4148303;28;20118;-79
2021/01/13 09:28:03;;;;;;;9.27;3.85;;;3.20;99.90;;;;;;4174096;28;20017;-80
2021/01/13 09:30:24;;;;;;;10.15;4.65;;;3.30;99.90;;;;;;4164689;28;20033;-80
2021/01/13 09:32:25;;;;;;;10.75;4.60;;;3.40;99.90;;;;;;4165109;28;20045;-80
2021/01/13 09:34:31;;;;;;;12.98;3.35;;;3.40;99.90;;;;;;4170286;28;23062;-80
2021/01/13 09:36:54;;;;;;;13.23;4.43;;;3.40;99.90;;;;;;4167164;28;20083;-80
2021/01/13 09:39:15;;;;;;;16.10;3.80;;;3.50;99.90;;;;;;4150440;28;20037;-80
2021/01/13 09:41:26;;;;;;;10.77;3.75;;;3.50;99.90;;;;;;4165892;28;20029;-81
2021/01/13 09:43:44;;;;;;;14.95;3.45;;;3.60;99.90;;;;;;4168196;28;20041;-80
2021/01/13 09:45:45;;;;;;;12.70;4.75;;;3.60;99.90;;;;;;4172011;28;20057;-79
2021/01/13 09:47:46;;;;;;;13.45;3.72;;;3.60;99.90;;;;;;4160194;28;20037;-80
2021/01/13 09:49:49;;;;;;;17.08;3.75;;;3.70;99.90;;;;;;4163728;28;20045;-80
2021/01/13 09:51:50;;;;;;;10.10;3.58;;;3.70;99.90;;;;;;4167526;28;20430;-80
2021/01/13 09:53:56;;;;;;;12.55;4.03;;;3.80;99.90;;;;;;4166832;28;20139;-80
2021/01/13 09:56:05;;;;;;;13.13;3.70;;;3.80;99.90;;;;;;4154706;28;20113;-80
2021/01/13 09:58:32;;;;;;;13.25;3.47;;;3.90;99.90;;;;;;4148651;28;20441;-80
2021/01/13 10:00:36;;;;;;;7.35;3.90;;;4.10;99.90;;;;;;4166606;28;20113;-80
2021/01/13 10:02:40;;;;;;;15.07;3.80;;;4.20;99.90;;;;;;4149499;28;20026;-80
2021/01/13 10:04:50;;;;;;;10.68;4.57;;;4.30;99.90;;;;;;4171869;28;20031;-81
2021/01/13 10:06:56;;;;;;;11.10;4.00;;;4.30;99.90;;;;;;4166201;28;20036;-80
2021/01/13 10:09:07;;;;;;;7.95;3.15;;;4.30;99.90;;;;;;4149221;28;20033;-80
2021/01/13 10:11:09;;;;;;;12.25;4.55;;;4.40;99.90;;;;;;4166311;28;20045;-80
2021/01/13 10:13:15;;;;;;;14.00;4.35;;;4.40;99.90;;;;;;4159745;28;20037;-81
2021/01/13 10:15:16;;;;;;;12.52;4.00;;;4.40;99.90;;;;;;4177203;28;20114;-80
2021/01/13 10:17:26;;;;;;;11.65;3.78;;;4.50;99.90;;;;;;4179413;28;20028;-81
2021/01/13 10:19:27;;;;;;;12.02;4.22;;;4.70;99.90;;;;;;4154438;28;20030;-80
2021/01/13 10:21:39;;;;;;;13.57;4.90;;;4.90;99.90;;;;;;4166267;28;20091;-80
2021/01/13 10:23:42;;;;;;;20.10;5.07;;;5.10;99.90;;;;;;4167277;28;20032;-80
2021/01/13 10:25:43;;;;;;;10.30;3.70;;;5.20;99.90;;;;;;4173186;28;20032;-79
2021/01/13 10:27:44;;;;;;;7.90;4.28;;;5.10;99.90;;;;;;4156020;28;20477;-80
2021/01/13 10:29:46;;;;;;;14.00;3.97;;;5.00;99.90;;;;;;4179761;28;20051;-79
2021/01/13 10:31:47;;;;;;;17.30;4.22;;;5.00;99.90;;;;;;4180350;28;20481;-80
2021/01/13 10:34:15;;;;;;;15.52;4.30;;;5.10;99.90;;;;;;4161998;28;20042;-80
2021/01/13 10:36:34;;;;;;;11.95;3.88;;;5.20;99.90;;;;;;4159543;28;20061;-80
2021/01/13 10:38:39;;;;;;;24.40;5.15;;;5.30;99.90;;;;;;4175814;28;20392;-80
2021/01/13 10:40:46;;;;;;;16.10;6.05;;;5.70;99.90;;;;;;4179783;28;20037;-81
2021/01/13 10:42:52;;;;;;;14.32;3.50;;;6.20;99.90;;;;;;4180498;28;20117;-80
2021/01/13 10:44:56;;;;;;;16.70;4.22;;;6.20;99.90;;;;;;4180390;28;20033;-80
2021/01/13 10:47:00;;;;;;;13.90;3.63;;;6.20;99.90;;;;;;4179866;28;20381;-80
2021/01/13 10:49:02;;;;;;;16.02;5.78;;;6.00;99.90;;;;;;4179738;28;20033;-79
2021/01/13 10:51:12;;;;;;;11.52;3.55;;;6.30;99.90;;;;;;4179942;28;20044;-78
2021/01/13 10:53:12;;;;;;;21.70;5.05;;;6.70;99.90;;;;;;4179141;28;20450;-80
2021/01/13 10:55:17;;;;;;;15.82;4.32;;;7.00;99.90;;;;;;4177382;28;20131;-79
2021/01/13 10:57:30;;;;;;;8.25;4.20;;;7.30;99.90;;;;;;4179706;28;20056;-79
2021/01/13 10:59:32;;;;;;;9.40;4.00;;;7.60;99.90;;;;;;4148468;28;20034;-80
2021/01/13 11:01:34;;;;;;;18.23;4.50;;;7.80;99.90;;;;;;4162339;28;20037;-80
2021/01/13 11:03:35;;;;;;;10.63;3.80;;;7.90;99.90;;;;;;4179863;28;20029;-79
2021/01/13 11:05:38;;;;;;;10.55;3.63;;;8.00;99.90;;;;;;4161871;28;20039;-80
2021/01/13 11:07:40;;;;;;;5.68;2.80;;;8.00;99.90;;;;;;4177966;28;20055;-80